sensor_id;sensor_type;location;lat;lon;timestamp;P1;durP1;ratioP1;P2;durP2;ratioP2
8421;SDS011;4248;48.196;10.924;2023-05-29T00:00:19;9.33;;;5.57;;
8421;SDS011;4248;48.196;10.924;2023-05-29T00:02:46;13.50;;;6.20;;
8421;SDS011;4248;48.196;10.924;2023-05-29T00:05:12;12.37;;;5.73;;
8421;SDS011;4248;48.196;10.924;2023-05-29T00:07:39;10.40;;;5.67;;
8421;SDS011;4248;48.196;10.924;2023-05-29T00:10:05;13.07;;;6.63;;
8421;SDS011;4248;48.196;10.924;2023-05-29T00:12:32;16.80;;;6.40;;
8421;SDS011;4248;48.196;10.924;2023-05-29T00:14:58;13.47;;;6.67;;
8421;SDS011;4248;48.196;10.924;2023-05-29T00:17:24;14.80;;;6.90;;
8421;SDS011;4248;48.196;10.924;2023-05-29T00:19:50;12.47;;;5.90;;
8421;SDS011;4248;48.196;10.924;2023-05-29T00:22:15;15.43;;;7.07;;
8421;SDS011;4248;48.196;10.924;2023-05-29T00:24:41;17.17;;;6.90;;
8421;SDS011;4248;48.196;10.924;2023-05-29T00:27:07;10.00;;;5.87;;
8421;SDS011;4248;48.196;10.924;2023-05-29T00:29:34;9.53;;;5.70;;
8421;SDS011;4248;48.196;10.924;2023-05-29T00:32:00;13.70;;;6.00;;
8421;SDS011;4248;48.196;10.924;2023-05-29T00:34:26;8.90;;;5.23;;
8421;SDS011;4248;48.196;10.924;2023-05-29T00:36:52;15.80;;;6.73;;
8421;SDS011;4248;48.196;10.924;2023-05-29T00:39:19;14.30;;;5.33;;
8421;SDS011;4248;48.196;10.924;2023-05-29T00:41:45;16.03;;;6.00;;
8421;SDS011;4248;48.196;10.924;2023-05-29T00:44:11;20.03;;;5.67;;
8421;SDS011;4248;48.196;10.924;2023-05-29T00:46:36;11.80;;;6.17;;
8421;SDS011;4248;48.196;10.924;2023-05-29T00:49:02;13.37;;;5.47;;
8421;SDS011;4248;48.196;10.924;2023-05-29T00:51:30;20.97;;;6.37;;
8421;SDS011;4248;48.196;10.924;2023-05-29T00:53:57;14.20;;;5.90;;
8421;SDS011;4248;48.196;10.924;2023-05-29T00:56:23;8.20;;;5.27;;
8421;SDS011;4248;48.196;10.924;2023-05-29T00:58:50;13.80;;;6.40;;
8421;SDS011;4248;48.196;10.924;2023-05-29T01:01:17;15.23;;;6.27;;
8421;SDS011;4248;48.196;10.924;2023-05-29T01:03:43;10.13;;;5.60;;
8421;SDS011;4248;48.196;10.924;2023-05-29T01:06:10;13.30;;;6.70;;
8421;SDS011;4248;48.196;10.924;2023-05-29T01:08:36;12.37;;;6.40;;
8421;SDS011;4248;48.196;10.924;2023-05-29T01:11:05;8.97;;;5.70;;
8421;SDS011;4248;48.196;10.924;2023-05-29T01:13:57;11.33;;;5.80;;
8421;SDS011;4248;48.196;10.924;2023-05-29T01:16:33;11.30;;;6.50;;
8421;SDS011;4248;48.196;10.924;2023-05-29T01:19:26;11.70;;;6.10;;
8421;SDS011;4248;48.196;10.924;2023-05-29T01:22:54;9.13;;;6.00;;
8421;SDS011;4248;48.196;10.924;2023-05-29T01:27:59;11.97;;;6.53;;
8421;SDS011;4248;48.196;10.924;2023-05-29T01:30:28;12.23;;;6.00;;
8421;SDS011;4248;48.196;10.924;2023-05-29T01:32:57;13.70;;;6.50;;
8421;SDS011;4248;48.196;10.924;2023-05-29T01:35:23;12.53;;;6.13;;
8421;SDS011;4248;48.196;10.924;2023-05-29T01:37:50;11.57;;;6.40;;
8421;SDS011;4248;48.196;10.924;2023-05-29T01:40:16;9.80;;;5.53;;
8421;SDS011;4248;48.196;10.924;2023-05-29T01:42:42;9.63;;;5.20;;
8421;SDS011;4248;48.196;10.924;2023-05-29T01:45:08;9.90;;;5.10;;
8421;SDS011;4248;48.196;10.924;2023-05-29T01:47:35;13.87;;;5.80;;
8421;SDS011;4248;48.196;10.924;2023-05-29T01:50:01;9.60;;;5.30;;
8421;SDS011;4248;48.196;10.924;2023-05-29T01:52:29;7.97;;;5.07;;
8421;SDS011;4248;48.196;10.924;2023-05-29T01:54:55;7.87;;;5.00;;
8421;SDS011;4248;48.196;10.924;2023-05-29T01:57:21;9.83;;;4.93;;
8421;SDS011;4248;48.196;10.924;2023-05-29T01:59:47;9.97;;;5.80;;
8421;SDS011;4248;48.196;10.924;2023-05-29T02:02:14;13.80;;;5.80;;
8421;SDS011;4248;48.196;10.924;2023-05-29T02:04:40;11.80;;;5.87;;
8421;SDS011;4248;48.196;10.924;2023-05-29T02:07:06;11.60;;;5.47;;
8421;SDS011;4248;48.196;10.924;2023-05-29T02:09:31;13.47;;;5.80;;
8421;SDS011;4248;48.196;10.924;2023-05-29T02:12:00;14.00;;;5.80;;
8421;SDS011;4248;48.196;10.924;2023-05-29T02:14:26;12.30;;;6.37;;
8421;SDS011;4248;48.196;10.924;2023-05-29T02:16:52;12.60;;;6.00;;
8421;SDS011;4248;48.196;10.924;2023-05-29T02:19:18;11.57;;;6.20;;
8421;SDS011;4248;48.196;10.924;2023-05-29T02:21:44;14.73;;;7.60;;
8421;SDS011;4248;48.196;10.924;2023-05-29T02:24:11;13.67;;;6.53;;
8421;SDS011;4248;48.196;10.924;2023-05-29T02:26:37;18.23;;;6.50;;
8421;SDS011;4248;48.196;10.924;2023-05-29T02:29:03;13.57;;;6.27;;
8421;SDS011;4248;48.196;10.924;2023-05-29T02:31:30;12.33;;;6.10;;
8421;SDS011;4248;48.196;10.924;2023-05-29T02:33:56;10.83;;;6.50;;
8421;SDS011;4248;48.196;10.924;2023-05-29T02:36:22;14.60;;;7.17;;
8421;SDS011;4248;48.196;10.924;2023-05-29T02:41:13;11.70;;;6.50;;
8421;SDS011;4248;48.196;10.924;2023-05-29T02:43:39;13.97;;;6.40;;
8421;SDS011;4248;48.196;10.924;2023-05-29T02:46:05;13.00;;;6.03;;
8421;SDS011;4248;48.196;10.924;2023-05-29T02:48:30;17.40;;;6.03;;
8421;SDS011;4248;48.196;10.924;2023-05-29T02:50:56;13.33;;;5.90;;
8421;SDS011;4248;48.196;10.924;2023-05-29T02:53:21;9.00;;;5.50;;
8421;SDS011;4248;48.196;10.924;2023-05-29T02:55:48;9.53;;;5.33;;
8421;SDS011;4248;48.196;10.924;2023-05-29T02:58:14;11.07;;;6.00;;
8421;SDS011;4248;48.196;10.924;2023-05-29T03:00:41;12.50;;;6.27;;
8421;SDS011;4248;48.196;10.924;2023-05-29T03:03:07;8.20;;;4.83;;
8421;SDS011;4248;48.196;10.924;2023-05-29T03:05:32;19.63;;;6.60;;
8421;SDS011;4248;48.196;10.924;2023-05-29T03:07:58;11.93;;;6.30;;
8421;SDS011;4248;48.196;10.924;2023-05-29T03:10:23;13.80;;;6.10;;
8421;SDS011;4248;48.196;10.924;2023-05-29T03:12:49;10.00;;;6.20;;
8421;SDS011;4248;48.196;10.924;2023-05-29T03:15:16;12.03;;;5.80;;
8421;SDS011;4248;48.196;10.924;2023-05-29T03:17:45;9.23;;;5.47;;
8421;SDS011;4248;48.196;10.924;2023-05-29T03:20:13;10.17;;;5.70;;
8421;SDS011;4248;48.196;10.924;2023-05-29T03:22:40;12.37;;;6.33;;
8421;SDS011;4248;48.196;10.924;2023-05-29T03:25:06;11.93;;;6.40;;
8421;SDS011;4248;48.196;10.924;2023-05-29T03:27:32;14.70;;;6.73;;
8421;SDS011;4248;48.196;10.924;2023-05-29T03:29:58;12.40;;;6.67;;
8421;SDS011;4248;48.196;10.924;2023-05-29T03:32:24;13.20;;;6.30;;
8421;SDS011;4248;48.196;10.924;2023-05-29T03:34:49;14.73;;;6.07;;
8421;SDS011;4248;48.196;10.924;2023-05-29T03:37:15;12.50;;;6.70;;
8421;SDS011;4248;48.196;10.924;2023-05-29T03:39:41;12.97;;;6.37;;
8421;SDS011;4248;48.196;10.924;2023-05-29T03:42:07;10.53;;;6.10;;
8421;SDS011;4248;48.196;10.924;2023-05-29T03:44:33;12.53;;;6.00;;
8421;SDS011;4248;48.196;10.924;2023-05-29T03:46:58;9.80;;;5.93;;
8421;SDS011;4248;48.196;10.924;2023-05-29T03:49:24;10.37;;;6.13;;
8421;SDS011;4248;48.196;10.924;2023-05-29T03:51:50;9.13;;;5.40;;
8421;SDS011;4248;48.196;10.924;2023-05-29T03:54:16;10.93;;;6.23;;
8421;SDS011;4248;48.196;10.924;2023-05-29T03:56:41;17.20;;;5.40;;
8421;SDS011;4248;48.196;10.924;2023-05-29T03:59:07;15.47;;;6.50;;
8421;SDS011;4248;48.196;10.924;2023-05-29T04:01:33;12.13;;;5.90;;
8421;SDS011;4248;48.196;10.924;2023-05-29T04:03:59;18.03;;;6.00;;
8421;SDS011;4248;48.196;10.924;2023-05-29T04:06:25;10.20;;;5.97;;
8421;SDS011;4248;48.196;10.924;2023-05-29T04:08:51;10.97;;;4.80;;
8421;SDS011;4248;48.196;10.924;2023-05-29T04:11:16;8.67;;;5.20;;
8421;SDS011;4248;48.196;10.924;2023-05-29T04:13:42;12.00;;;5.30;;
8421;SDS011;4248;48.196;10.924;2023-05-29T04:16:08;10.80;;;5.20;;
8421;SDS011;4248;48.196;10.924;2023-05-29T04:18:33;11.30;;;5.57;;
8421;SDS011;4248;48.196;10.924;2023-05-29T04:20:59;12.50;;;4.93;;
8421;SDS011;4248;48.196;10.924;2023-05-29T04:23:25;10.13;;;5.63;;
8421;SDS011;4248;48.196;10.924;2023-05-29T04:25:50;12.37;;;6.00;;
8421;SDS011;4248;48.196;10.924;2023-05-29T04:28:17;9.80;;;5.60;;
8421;SDS011;4248;48.196;10.924;2023-05-29T04:30:46;11.70;;;5.80;;
8421;SDS011;4248;48.196;10.924;2023-05-29T04:33:12;11.30;;;6.13;;
8421;SDS011;4248;48.196;10.924;2023-05-29T04:35:39;10.57;;;5.60;;
8421;SDS011;4248;48.196;10.924;2023-05-29T04:38:08;14.10;;;5.90;;
8421;SDS011;4248;48.196;10.924;2023-05-29T04:40:34;9.27;;;5.80;;
8421;SDS011;4248;48.196;10.924;2023-05-29T04:43:01;9.10;;;5.70;;
8421;SDS011;4248;48.196;10.924;2023-05-29T04:45:30;10.93;;;5.60;;
8421;SDS011;4248;48.196;10.924;2023-05-29T04:47:55;10.20;;;5.40;;
8421;SDS011;4248;48.196;10.924;2023-05-29T04:50:21;8.03;;;4.73;;
8421;SDS011;4248;48.196;10.924;2023-05-29T04:52:48;10.60;;;5.93;;
8421;SDS011;4248;48.196;10.924;2023-05-29T04:55:13;11.50;;;6.30;;
8421;SDS011;4248;48.196;10.924;2023-05-29T04:57:39;12.30;;;5.83;;
8421;SDS011;4248;48.196;10.924;2023-05-29T05:00:05;15.07;;;7.10;;
8421;SDS011;4248;48.196;10.924;2023-05-29T05:02:33;12.17;;;7.50;;
8421;SDS011;4248;48.196;10.924;2023-05-29T05:04:59;12.60;;;7.43;;
8421;SDS011;4248;48.196;10.924;2023-05-29T05:07:24;13.70;;;6.80;;
8421;SDS011;4248;48.196;10.924;2023-05-29T05:09:50;12.67;;;6.70;;
8421;SDS011;4248;48.196;10.924;2023-05-29T05:12:16;13.13;;;6.37;;
8421;SDS011;4248;48.196;10.924;2023-05-29T05:14:41;14.00;;;6.90;;
8421;SDS011;4248;48.196;10.924;2023-05-29T05:17:07;16.90;;;7.10;;
8421;SDS011;4248;48.196;10.924;2023-05-29T05:19:32;13.10;;;7.23;;
8421;SDS011;4248;48.196;10.924;2023-05-29T05:21:58;12.43;;;6.67;;
8421;SDS011;4248;48.196;10.924;2023-05-29T05:24:23;14.90;;;6.83;;
8421;SDS011;4248;48.196;10.924;2023-05-29T05:26:49;16.90;;;6.83;;
8421;SDS011;4248;48.196;10.924;2023-05-29T05:29:15;14.40;;;7.10;;
8421;SDS011;4248;48.196;10.924;2023-05-29T05:31:40;13.00;;;6.77;;
8421;SDS011;4248;48.196;10.924;2023-05-29T05:34:06;13.90;;;7.00;;
8421;SDS011;4248;48.196;10.924;2023-05-29T05:36:32;11.63;;;6.87;;
8421;SDS011;4248;48.196;10.924;2023-05-29T05:38:57;12.73;;;6.63;;
8421;SDS011;4248;48.196;10.924;2023-05-29T05:41:23;10.70;;;6.63;;
8421;SDS011;4248;48.196;10.924;2023-05-29T05:43:49;15.47;;;7.37;;
8421;SDS011;4248;48.196;10.924;2023-05-29T05:46:15;12.27;;;7.10;;
8421;SDS011;4248;48.196;10.924;2023-05-29T05:48:42;14.27;;;7.17;;
8421;SDS011;4248;48.196;10.924;2023-05-29T05:51:07;12.43;;;6.50;;
8421;SDS011;4248;48.196;10.924;2023-05-29T05:53:33;14.43;;;7.10;;
8421;SDS011;4248;48.196;10.924;2023-05-29T05:55:59;12.50;;;6.90;;
8421;SDS011;4248;48.196;10.924;2023-05-29T05:58:25;12.00;;;6.43;;
8421;SDS011;4248;48.196;10.924;2023-05-29T06:00:50;16.20;;;7.30;;
8421;SDS011;4248;48.196;10.924;2023-05-29T06:03:17;17.90;;;7.20;;
8421;SDS011;4248;48.196;10.924;2023-05-29T06:05:43;9.53;;;6.10;;
8421;SDS011;4248;48.196;10.924;2023-05-29T06:08:08;12.77;;;7.10;;
8421;SDS011;4248;48.196;10.924;2023-05-29T06:10:34;12.27;;;6.73;;
8421;SDS011;4248;48.196;10.924;2023-05-29T06:13:01;13.30;;;7.40;;
8421;SDS011;4248;48.196;10.924;2023-05-29T06:15:26;17.33;;;7.53;;
8421;SDS011;4248;48.196;10.924;2023-05-29T06:17:52;11.87;;;6.60;;
8421;SDS011;4248;48.196;10.924;2023-05-29T06:20:20;17.03;;;6.70;;
8421;SDS011;4248;48.196;10.924;2023-05-29T06:22:46;16.03;;;6.40;;
8421;SDS011;4248;48.196;10.924;2023-05-29T06:25:18;10.13;;;6.77;;
8421;SDS011;4248;48.196;10.924;2023-05-29T06:27:45;14.93;;;7.50;;
8421;SDS011;4248;48.196;10.924;2023-05-29T06:30:11;15.87;;;7.80;;
8421;SDS011;4248;48.196;10.924;2023-05-29T06:32:37;13.20;;;7.40;;
8421;SDS011;4248;48.196;10.924;2023-05-29T06:35:03;19.40;;;6.23;;
8421;SDS011;4248;48.196;10.924;2023-05-29T06:37:31;11.40;;;7.03;;
8421;SDS011;4248;48.196;10.924;2023-05-29T06:39:56;12.77;;;6.30;;
8421;SDS011;4248;48.196;10.924;2023-05-29T06:42:22;14.07;;;6.83;;
8421;SDS011;4248;48.196;10.924;2023-05-29T06:44:47;14.47;;;7.53;;
8421;SDS011;4248;48.196;10.924;2023-05-29T06:47:13;15.13;;;6.80;;
8421;SDS011;4248;48.196;10.924;2023-05-29T06:49:39;12.97;;;7.40;;
8421;SDS011;4248;48.196;10.924;2023-05-29T06:52:04;13.93;;;6.80;;
8421;SDS011;4248;48.196;10.924;2023-05-29T06:54:30;16.13;;;7.30;;
8421;SDS011;4248;48.196;10.924;2023-05-29T06:56:56;13.77;;;7.00;;
8421;SDS011;4248;48.196;10.924;2023-05-29T06:59:22;16.27;;;7.43;;
8421;SDS011;4248;48.196;10.924;2023-05-29T07:01:47;13.03;;;7.00;;
8421;SDS011;4248;48.196;10.924;2023-05-29T07:04:13;12.93;;;7.00;;
8421;SDS011;4248;48.196;10.924;2023-05-29T07:06:38;13.47;;;7.70;;
8421;SDS011;4248;48.196;10.924;2023-05-29T07:09:04;12.80;;;6.57;;
8421;SDS011;4248;48.196;10.924;2023-05-29T07:11:30;16.87;;;7.20;;
8421;SDS011;4248;48.196;10.924;2023-05-29T07:13:55;12.20;;;7.47;;
8421;SDS011;4248;48.196;10.924;2023-05-29T07:16:21;16.43;;;7.30;;
8421;SDS011;4248;48.196;10.924;2023-05-29T07:18:47;17.00;;;6.50;;
8421;SDS011;4248;48.196;10.924;2023-05-29T07:21:12;14.17;;;6.37;;
8421;SDS011;4248;48.196;10.924;2023-05-29T07:23:39;11.23;;;6.30;;
8421;SDS011;4248;48.196;10.924;2023-05-29T07:26:05;15.93;;;7.03;;
8421;SDS011;4248;48.196;10.924;2023-05-29T07:28:30;10.37;;;6.20;;
8421;SDS011;4248;48.196;10.924;2023-05-29T07:30:56;12.03;;;6.47;;
8421;SDS011;4248;48.196;10.924;2023-05-29T07:33:23;19.43;;;6.67;;
8421;SDS011;4248;48.196;10.924;2023-05-29T07:35:48;15.67;;;6.53;;
8421;SDS011;4248;48.196;10.924;2023-05-29T07:38:14;14.17;;;6.97;;
8421;SDS011;4248;48.196;10.924;2023-05-29T07:40:40;12.00;;;5.97;;
8421;SDS011;4248;48.196;10.924;2023-05-29T07:43:06;10.17;;;6.20;;
8421;SDS011;4248;48.196;10.924;2023-05-29T07:45:32;14.77;;;6.30;;
8421;SDS011;4248;48.196;10.924;2023-05-29T07:47:57;12.20;;;6.80;;
8421;SDS011;4248;48.196;10.924;2023-05-29T07:50:23;25.23;;;7.80;;
8421;SDS011;4248;48.196;10.924;2023-05-29T07:52:48;16.20;;;6.93;;
8421;SDS011;4248;48.196;10.924;2023-05-29T07:55:14;14.27;;;7.17;;
8421;SDS011;4248;48.196;10.924;2023-05-29T07:57:39;10.53;;;6.10;;
8421;SDS011;4248;48.196;10.924;2023-05-29T08:00:05;12.70;;;6.50;;
8421;SDS011;4248;48.196;10.924;2023-05-29T08:02:33;10.20;;;5.80;;
8421;SDS011;4248;48.196;10.924;2023-05-29T08:04:59;11.70;;;5.93;;
8421;SDS011;4248;48.196;10.924;2023-05-29T08:07:24;11.90;;;6.40;;
8421;SDS011;4248;48.196;10.924;2023-05-29T08:09:53;11.60;;;5.70;;
8421;SDS011;4248;48.196;10.924;2023-05-29T08:12:18;14.70;;;6.67;;
8421;SDS011;4248;48.196;10.924;2023-05-29T08:14:44;10.70;;;4.87;;
8421;SDS011;4248;48.196;10.924;2023-05-29T08:17:10;13.33;;;6.53;;
8421;SDS011;4248;48.196;10.924;2023-05-29T08:19:35;15.07;;;5.57;;
8421;SDS011;4248;48.196;10.924;2023-05-29T08:22:01;10.40;;;5.77;;
8421;SDS011;4248;48.196;10.924;2023-05-29T08:24:26;13.70;;;5.43;;
8421;SDS011;4248;48.196;10.924;2023-05-29T08:26:52;12.73;;;5.40;;
8421;SDS011;4248;48.196;10.924;2023-05-29T08:29:18;10.13;;;5.30;;
8421;SDS011;4248;48.196;10.924;2023-05-29T08:31:44;9.07;;;5.50;;
8421;SDS011;4248;48.196;10.924;2023-05-29T08:34:10;10.43;;;5.40;;
8421;SDS011;4248;48.196;10.924;2023-05-29T08:36:36;9.10;;;4.90;;
8421;SDS011;4248;48.196;10.924;2023-05-29T08:39:02;12.90;;;5.30;;
8421;SDS011;4248;48.196;10.924;2023-05-29T08:41:28;11.13;;;5.10;;
8421;SDS011;4248;48.196;10.924;2023-05-29T08:44:06;9.57;;;5.07;;
8421;SDS011;4248;48.196;10.924;2023-05-29T08:46:36;16.07;;;5.73;;
8421;SDS011;4248;48.196;10.924;2023-05-29T08:49:03;8.97;;;5.13;;
8421;SDS011;4248;48.196;10.924;2023-05-29T08:51:31;11.23;;;4.90;;
8421;SDS011;4248;48.196;10.924;2023-05-29T08:54:01;8.37;;;5.03;;
8421;SDS011;4248;48.196;10.924;2023-05-29T08:56:27;17.23;;;5.70;;
8421;SDS011;4248;48.196;10.924;2023-05-29T08:58:53;9.70;;;5.17;;
8421;SDS011;4248;48.196;10.924;2023-05-29T09:01:19;11.80;;;5.07;;
8421;SDS011;4248;48.196;10.924;2023-05-29T09:03:47;14.47;;;5.90;;
8421;SDS011;4248;48.196;10.924;2023-05-29T09:06:13;9.40;;;4.60;;
8421;SDS011;4248;48.196;10.924;2023-05-29T09:08:39;10.43;;;4.70;;
8421;SDS011;4248;48.196;10.924;2023-05-29T09:11:04;16.13;;;5.07;;
8421;SDS011;4248;48.196;10.924;2023-05-29T09:13:30;8.77;;;4.77;;
8421;SDS011;4248;48.196;10.924;2023-05-29T09:15:59;12.23;;;4.90;;
8421;SDS011;4248;48.196;10.924;2023-05-29T09:18:28;12.93;;;5.47;;
8421;SDS011;4248;48.196;10.924;2023-05-29T09:20:57;8.23;;;4.23;;
8421;SDS011;4248;48.196;10.924;2023-05-29T09:23:25;10.40;;;4.47;;
8421;SDS011;4248;48.196;10.924;2023-05-29T09:25:51;13.43;;;5.73;;
8421;SDS011;4248;48.196;10.924;2023-05-29T09:28:18;8.93;;;4.00;;
8421;SDS011;4248;48.196;10.924;2023-05-29T09:30:46;8.60;;;4.80;;
8421;SDS011;4248;48.196;10.924;2023-05-29T09:33:13;15.67;;;4.80;;
8421;SDS011;4248;48.196;10.924;2023-05-29T09:38:07;10.33;;;4.70;;
8421;SDS011;4248;48.196;10.924;2023-05-29T09:40:34;9.40;;;4.93;;
8421;SDS011;4248;48.196;10.924;2023-05-29T09:43:11;10.33;;;4.50;;
8421;SDS011;4248;48.196;10.924;2023-05-29T09:45:42;13.00;;;4.60;;
8421;SDS011;4248;48.196;10.924;2023-05-29T09:48:13;10.40;;;5.37;;
8421;SDS011;4248;48.196;10.924;2023-05-29T09:50:40;16.50;;;5.90;;
8421;SDS011;4248;48.196;10.924;2023-05-29T09:53:19;7.17;;;4.30;;
8421;SDS011;4248;48.196;10.924;2023-05-29T09:55:49;12.93;;;4.97;;
8421;SDS011;4248;48.196;10.924;2023-05-29T09:58:19;8.93;;;4.10;;
8421;SDS011;4248;48.196;10.924;2023-05-29T10:00:45;7.50;;;4.60;;
8421;SDS011;4248;48.196;10.924;2023-05-29T10:03:13;9.13;;;4.20;;
8421;SDS011;4248;48.196;10.924;2023-05-29T10:05:39;19.60;;;4.93;;
8421;SDS011;4248;48.196;10.924;2023-05-29T10:08:10;10.63;;;4.63;;
8421;SDS011;4248;48.196;10.924;2023-05-29T10:10:39;9.80;;;4.50;;
8421;SDS011;4248;48.196;10.924;2023-05-29T10:13:09;8.30;;;4.27;;
8421;SDS011;4248;48.196;10.924;2023-05-29T10:15:37;6.60;;;3.90;;
8421;SDS011;4248;48.196;10.924;2023-05-29T10:18:08;10.23;;;4.70;;
8421;SDS011;4248;48.196;10.924;2023-05-29T10:20:49;11.90;;;5.17;;
8421;SDS011;4248;48.196;10.924;2023-05-29T10:23:21;9.23;;;4.50;;
8421;SDS011;4248;48.196;10.924;2023-05-29T10:25:51;12.67;;;4.73;;
8421;SDS011;4248;48.196;10.924;2023-05-29T10:28:21;11.43;;;5.00;;
8421;SDS011;4248;48.196;10.924;2023-05-29T10:30:55;12.27;;;5.10;;
8421;SDS011;4248;48.196;10.924;2023-05-29T10:36:14;13.50;;;4.67;;
8421;SDS011;4248;48.196;10.924;2023-05-29T10:38:44;7.93;;;4.20;;
8421;SDS011;4248;48.196;10.924;2023-05-29T10:43:53;9.97;;;4.40;;
8421;SDS011;4248;48.196;10.924;2023-05-29T10:49:15;8.40;;;4.60;;
8421;SDS011;4248;48.196;10.924;2023-05-29T10:51:44;10.80;;;5.00;;
8421;SDS011;4248;48.196;10.924;2023-05-29T10:54:10;7.63;;;3.90;;
8421;SDS011;4248;48.196;10.924;2023-05-29T10:56:36;9.00;;;4.73;;
8421;SDS011;4248;48.196;10.924;2023-05-29T10:59:02;8.37;;;4.80;;
8421;SDS011;4248;48.196;10.924;2023-05-29T11:01:28;8.53;;;4.60;;
8421;SDS011;4248;48.196;10.924;2023-05-29T11:06:43;9.97;;;4.50;;
8421;SDS011;4248;48.196;10.924;2023-05-29T11:15:03;11.27;;;5.00;;
8421;SDS011;4248;48.196;10.924;2023-05-29T11:19:56;8.50;;;4.30;;
8421;SDS011;4248;48.196;10.924;2023-05-29T11:22:27;8.63;;;4.70;;
8421;SDS011;4248;48.196;10.924;2023-05-29T11:25:06;18.27;;;4.60;;
8421;SDS011;4248;48.196;10.924;2023-05-29T11:27:32;7.80;;;4.40;;
8421;SDS011;4248;48.196;10.924;2023-05-29T11:29:59;16.67;;;4.17;;
8421;SDS011;4248;48.196;10.924;2023-05-29T11:32:25;8.77;;;4.53;;
8421;SDS011;4248;48.196;10.924;2023-05-29T11:34:55;8.27;;;4.27;;
8421;SDS011;4248;48.196;10.924;2023-05-29T11:37:24;9.53;;;4.57;;
8421;SDS011;4248;48.196;10.924;2023-05-29T11:39:50;9.33;;;5.10;;
8421;SDS011;4248;48.196;10.924;2023-05-29T11:42:16;10.57;;;4.73;;
8421;SDS011;4248;48.196;10.924;2023-05-29T11:44:42;6.40;;;3.73;;
8421;SDS011;4248;48.196;10.924;2023-05-29T11:47:07;7.93;;;3.83;;
8421;SDS011;4248;48.196;10.924;2023-05-29T11:49:34;12.03;;;4.47;;
8421;SDS011;4248;48.196;10.924;2023-05-29T11:52:10;10.30;;;4.40;;
8421;SDS011;4248;48.196;10.924;2023-05-29T11:54:37;7.13;;;3.93;;
8421;SDS011;4248;48.196;10.924;2023-05-29T11:57:02;7.13;;;3.90;;
8421;SDS011;4248;48.196;10.924;2023-05-29T11:59:33;9.47;;;4.03;;
8421;SDS011;4248;48.196;10.924;2023-05-29T12:02:02;13.00;;;4.03;;
8421;SDS011;4248;48.196;10.924;2023-05-29T12:04:28;9.70;;;4.97;;
8421;SDS011;4248;48.196;10.924;2023-05-29T12:06:53;9.30;;;4.70;;
8421;SDS011;4248;48.196;10.924;2023-05-29T12:09:27;8.00;;;4.13;;
8421;SDS011;4248;48.196;10.924;2023-05-29T12:11:54;8.50;;;4.67;;
8421;SDS011;4248;48.196;10.924;2023-05-29T12:14:26;7.37;;;3.70;;
8421;SDS011;4248;48.196;10.924;2023-05-29T12:16:51;5.23;;;3.03;;
8421;SDS011;4248;48.196;10.924;2023-05-29T12:19:17;6.90;;;3.87;;
8421;SDS011;4248;48.196;10.924;2023-05-29T12:21:43;13.77;;;4.17;;
8421;SDS011;4248;48.196;10.924;2023-05-29T12:24:09;9.57;;;3.93;;
8421;SDS011;4248;48.196;10.924;2023-05-29T12:26:35;8.13;;;4.33;;
8421;SDS011;4248;48.196;10.924;2023-05-29T12:29:04;7.27;;;3.53;;
8421;SDS011;4248;48.196;10.924;2023-05-29T12:31:30;7.23;;;3.67;;
8421;SDS011;4248;48.196;10.924;2023-05-29T12:34:07;7.67;;;4.10;;
8421;SDS011;4248;48.196;10.924;2023-05-29T12:36:35;8.93;;;4.07;;
8421;SDS011;4248;48.196;10.924;2023-05-29T12:39:04;10.63;;;4.30;;
8421;SDS011;4248;48.196;10.924;2023-05-29T12:41:34;7.53;;;3.80;;
8421;SDS011;4248;48.196;10.924;2023-05-29T12:44:01;7.50;;;3.80;;
8421;SDS011;4248;48.196;10.924;2023-05-29T12:46:35;9.60;;;4.10;;
8421;SDS011;4248;48.196;10.924;2023-05-29T12:49:12;8.50;;;4.13;;
8421;SDS011;4248;48.196;10.924;2023-05-29T12:51:43;6.63;;;3.80;;
8421;SDS011;4248;48.196;10.924;2023-05-29T12:54:10;10.27;;;4.27;;
8421;SDS011;4248;48.196;10.924;2023-05-29T12:56:36;8.40;;;4.27;;
8421;SDS011;4248;48.196;10.924;2023-05-29T12:59:05;8.97;;;4.30;;
8421;SDS011;4248;48.196;10.924;2023-05-29T13:01:35;8.20;;;4.60;;
8421;SDS011;4248;48.196;10.924;2023-05-29T13:04:03;7.67;;;3.93;;
8421;SDS011;4248;48.196;10.924;2023-05-29T13:06:38;8.87;;;4.00;;
8421;SDS011;4248;48.196;10.924;2023-05-29T13:09:03;6.37;;;3.67;;
8421;SDS011;4248;48.196;10.924;2023-05-29T13:11:30;9.70;;;4.37;;
8421;SDS011;4248;48.196;10.924;2023-05-29T13:13:56;11.90;;;4.23;;
8421;SDS011;4248;48.196;10.924;2023-05-29T13:16:22;7.53;;;3.83;;
8421;SDS011;4248;48.196;10.924;2023-05-29T13:18:48;7.00;;;3.87;;
8421;SDS011;4248;48.196;10.924;2023-05-29T13:21:13;9.37;;;3.93;;
8421;SDS011;4248;48.196;10.924;2023-05-29T13:23:39;6.63;;;3.60;;
8421;SDS011;4248;48.196;10.924;2023-05-29T13:26:05;8.80;;;4.20;;
8421;SDS011;4248;48.196;10.924;2023-05-29T13:28:30;7.40;;;3.80;;
8421;SDS011;4248;48.196;10.924;2023-05-29T13:30:56;6.57;;;3.90;;
8421;SDS011;4248;48.196;10.924;2023-05-29T13:33:22;9.47;;;3.80;;
8421;SDS011;4248;48.196;10.924;2023-05-29T13:35:47;8.93;;;3.90;;
8421;SDS011;4248;48.196;10.924;2023-05-29T13:38:13;9.03;;;4.07;;
8421;SDS011;4248;48.196;10.924;2023-05-29T13:40:39;10.97;;;3.87;;
8421;SDS011;4248;48.196;10.924;2023-05-29T13:43:04;9.53;;;3.77;;
8421;SDS011;4248;48.196;10.924;2023-05-29T13:45:30;8.00;;;3.97;;
8421;SDS011;4248;48.196;10.924;2023-05-29T13:47:56;7.47;;;3.97;;
8421;SDS011;4248;48.196;10.924;2023-05-29T13:50:21;7.30;;;4.00;;
8421;SDS011;4248;48.196;10.924;2023-05-29T13:52:48;12.33;;;4.70;;
8421;SDS011;4248;48.196;10.924;2023-05-29T13:55:15;10.13;;;3.80;;
8421;SDS011;4248;48.196;10.924;2023-05-29T13:57:41;14.33;;;4.60;;
8421;SDS011;4248;48.196;10.924;2023-05-29T14:00:08;8.67;;;4.00;;
8421;SDS011;4248;48.196;10.924;2023-05-29T14:02:36;9.60;;;4.57;;
8421;SDS011;4248;48.196;10.924;2023-05-29T14:05:01;9.47;;;4.20;;
8421;SDS011;4248;48.196;10.924;2023-05-29T14:07:27;8.00;;;4.40;;
8421;SDS011;4248;48.196;10.924;2023-05-29T14:09:53;10.53;;;4.27;;
8421;SDS011;4248;48.196;10.924;2023-05-29T14:12:19;7.20;;;3.60;;
8421;SDS011;4248;48.196;10.924;2023-05-29T14:14:44;8.50;;;3.43;;
8421;SDS011;4248;48.196;10.924;2023-05-29T14:17:10;7.70;;;3.90;;
8421;SDS011;4248;48.196;10.924;2023-05-29T14:19:37;8.60;;;4.23;;
8421;SDS011;4248;48.196;10.924;2023-05-29T14:22:03;8.50;;;3.87;;
8421;SDS011;4248;48.196;10.924;2023-05-29T14:24:29;11.00;;;4.70;;
8421;SDS011;4248;48.196;10.924;2023-05-29T14:26:54;8.33;;;3.87;;
8421;SDS011;4248;48.196;10.924;2023-05-29T14:29:20;11.63;;;4.33;;
8421;SDS011;4248;48.196;10.924;2023-05-29T14:31:46;12.53;;;4.30;;
8421;SDS011;4248;48.196;10.924;2023-05-29T14:34:12;9.43;;;4.13;;
8421;SDS011;4248;48.196;10.924;2023-05-29T14:36:38;9.60;;;4.00;;
8421;SDS011;4248;48.196;10.924;2023-05-29T14:39:04;9.23;;;3.87;;
8421;SDS011;4248;48.196;10.924;2023-05-29T14:41:30;8.83;;;3.90;;
8421;SDS011;4248;48.196;10.924;2023-05-29T14:43:56;7.40;;;3.90;;
8421;SDS011;4248;48.196;10.924;2023-05-29T14:46:23;9.30;;;4.50;;
8421;SDS011;4248;48.196;10.924;2023-05-29T14:48:53;7.63;;;4.00;;
8421;SDS011;4248;48.196;10.924;2023-05-29T14:51:19;9.07;;;4.37;;
8421;SDS011;4248;48.196;10.924;2023-05-29T14:53:45;7.50;;;4.20;;
8421;SDS011;4248;48.196;10.924;2023-05-29T14:56:11;7.43;;;4.20;;
8421;SDS011;4248;48.196;10.924;2023-05-29T14:58:37;8.67;;;3.97;;
8421;SDS011;4248;48.196;10.924;2023-05-29T15:01:04;8.63;;;3.50;;
8421;SDS011;4248;48.196;10.924;2023-05-29T15:03:29;13.33;;;3.60;;
8421;SDS011;4248;48.196;10.924;2023-05-29T15:05:55;9.33;;;4.00;;
8421;SDS011;4248;48.196;10.924;2023-05-29T15:08:22;8.03;;;4.20;;
8421;SDS011;4248;48.196;10.924;2023-05-29T15:10:48;6.93;;;3.50;;
8421;SDS011;4248;48.196;10.924;2023-05-29T15:13:13;6.70;;;3.43;;
8421;SDS011;4248;48.196;10.924;2023-05-29T15:15:39;6.57;;;3.50;;
8421;SDS011;4248;48.196;10.924;2023-05-29T15:18:05;7.37;;;4.07;;